Time;durP1;ratioP1;P1;durP2;ratioP2;P2;SDS_P1;SDS_P2;PMS_P1;PMS_P2;Temp;Humidity;BMP_temperature;BMP_pressure;BME280_temperature;BME280_humidity;BME280_pressure;Samples;Min_cycle;Max_cycle;Signal;HPM_P1;HPM_P2
2021/11/16 00:00:57;;;;;;;;;;;;;;;;;;4984056;28;19914;-70
2021/11/16 00:03:23;;;;;;;;;;;;;;;;;;4986999;28;19956;-70
2021/11/16 00:05:49;;;;;;;;;;;;;;;;;;4989649;28;19960;-70
2021/11/16 00:08:15;;;;;;;;;;;;;;;;;;4971139;28;20461;-70
2021/11/16 00:10:41;;;;;;;;;;;;;;;;;;4988386;28;19910;-70
2021/11/16 00:13:11;;;;;;;;;;;;;;;;;;4988266;28;20380;-70
2021/11/16 00:15:37;;;;;;;;;;;;;;;;;;4972033;28;19918;-70
2021/11/16 00:18:03;;;;;;;;;;;;;;;;;;4989123;28;19909;-70
2021/11/16 00:20:31;;;;;;;566.50;390.80;;;;;;;;;;4987037;28;20399;-70
2021/11/16 00:22:57;;;;;;;76.63;62.63;;;;;;;;;;4989205;28;20406;-68
2021/11/16 00:25:35;;;;;;;70.82;57.33;;;;;;;;;;4988398;28;20030;-68
2021/11/16 00:28:02;;;;;;;76.63;55.85;;;;;;;;;;4978744;28;20529;-68
2021/11/16 00:30:28;;;;;;;85.50;59.67;;;;;;;;;;4988121;28;20102;-69
2021/11/16 00:32:54;;;;;;;450.60;298.75;;;;;;;;;;4988307;28;20022;-69
2021/11/16 00:35:20;;;;;;;88.53;67.28;;;;;;;;;;4986094;28;20026;-69
2021/11/16 00:37:46;;;;;;;70.78;57.85;;;;;;;;;;4983532;28;20414;-68
2021/11/16 00:40:16;;;;;;;73.25;58.63;;;;;;;;;;4986504;28;20483;-68
2021/11/16 00:42:43;;;;;;;722.75;548.85;;;;;;;;;;4967795;28;20033;-69
2021/11/16 00:45:10;;;;;;;699.53;460.98;;;;;;;;;;4967085;28;20864;-69
2021/11/16 00:47:36;;;;;;;468.00;370.75;;;;;;;;;;4985044;28;20057;-68
2021/11/16 00:50:03;;;;;;;786.90;544.15;;;;;;;;;;4988594;28;20499;-69
2021/11/16 00:52:29;;;;;;;646.40;497.60;;;;;;;;;;4972681;28;20042;-68
2021/11/16 00:54:55;;;;;;;584.97;434.30;;;;;;;;;;4988830;28;20018;-69
2021/11/16 00:57:22;;;;;;;60.95;50.15;;;;;;;;;;4971834;28;20465;-69
2021/11/16 00:59:48;;;;;;;109.40;80.63;;;;;;;;;;4962497;28;20615;-69
2021/11/16 01:02:15;;;;;;;60.13;49.70;;;;;;;;;;4987549;28;20038;-69
2021/11/16 01:04:47;;;;;;;154.95;122.13;;;;;;;;;;4986838;28;20038;-69
2021/11/16 01:07:13;;;;;;;653.55;422.75;;;;;;;;;;4985744;28;20034;-70
2021/11/16 01:09:40;;;;;;;56.97;46.65;;;;;;;;;;4986293;28;20399;-69
2021/11/16 01:12:06;;;;;;;55.53;47.03;;;;;;;;;;4985125;28;20041;-69
2021/11/16 01:14:32;;;;;;;52.10;46.58;;;;;;;;;;4987948;28;20061;-69
2021/11/16 01:17:00;;;;;;;55.22;49.22;;;;;;;;;;4986273;28;20025;-68
2021/11/16 01:19:26;;;;;;;57.13;51.03;;;;;;;;;;4966084;28;20041;-69
2021/11/16 01:21:52;;;;;;;52.50;47.30;;;;;;;;;;4984824;28;20125;-69
2021/11/16 01:24:19;;;;;;;52.22;46.95;;;;;;;;;;4988950;28;20109;-69
2021/11/16 01:26:47;;;;;;;52.92;47.78;;;;;;;;;;4997386;28;20033;-69
2021/11/16 01:29:13;;;;;;;53.20;48.05;;;;;;;;;;4987621;28;20046;-69
2021/11/16 01:31:39;;;;;;;55.58;50.33;;;;;;;;;;4986267;28;20045;-69
2021/11/16 01:34:07;;;;;;;58.63;53.42;;;;;;;;;;4987395;28;20029;-69
2021/11/16 01:36:33;;;;;;;59.63;54.60;;;;;;;;;;4984619;28;20070;-69
2021/11/16 01:39:00;;;;;;;53.75;48.67;;;;;;;;;;4996179;28;20344;-69
2021/11/16 01:41:27;;;;;;;52.28;47.25;;;;;;;;;;4989121;28;20104;-68
2021/11/16 01:43:54;;;;;;;54.33;49.13;;;;;;;;;;4968769;28;20046;-69
2021/11/16 01:46:21;;;;;;;56.05;50.83;;;;;;;;;;4983016;28;20038;-69
2021/11/16 01:48:50;;;;;;;56.80;51.15;;;;;;;;;;4985487;28;20034;-68
2021/11/16 01:51:19;;;;;;;55.60;49.67;;;;;;;;;;4990615;28;20034;-68
2021/11/16 01:53:45;;;;;;;54.22;49.15;;;;;;;;;;4982552;28;20530;-68
2021/11/16 01:56:11;;;;;;;54.72;49.72;;;;;;;;;;4971526;28;20402;-69
2021/11/16 01:58:38;;;;;;;53.17;47.47;;;;;;;;;;4965696;28;20077;-68
2021/11/16 02:01:04;;;;;;;54.33;49.28;;;;;;;;;;4968530;28;20031;-69
2021/11/16 02:03:30;;;;;;;54.05;48.97;;;;;;;;;;4979183;28;20149;-68
2021/11/16 02:05:58;;;;;;;55.75;50.67;;;;;;;;;;4968163;28;20038;-69
2021/11/16 02:08:24;;;;;;;56.22;51.03;;;;;;;;;;4967596;28;20298;-68
2021/11/16 02:10:52;;;;;;;55.63;50.50;;;;;;;;;;4969218;28;20027;-68
2021/11/16 02:13:20;;;;;;;59.40;53.65;;;;;;;;;;4971828;28;20026;-68
2021/11/16 02:15:46;;;;;;;60.75;55.47;;;;;;;;;;4971024;28;20058;-68
2021/11/16 02:18:13;;;;;;;60.85;55.60;;;;;;;;;;4966589;28;20050;-68
2021/11/16 02:20:40;;;;;;;61.33;54.50;;;;;;;;;;4973720;28;20030;-68
2021/11/16 02:23:07;;;;;;;61.40;56.20;;;;;;;;;;4982595;28;20042;-69
2021/11/16 02:25:33;;;;;;;58.83;53.22;;;;;;;;;;4985747;28;20125;-68
2021/11/16 02:27:59;;;;;;;60.70;55.17;;;;;;;;;;4984165;28;20439;-68
2021/11/16 02:30:26;;;;;;;57.13;51.58;;;;;;;;;;4993926;28;20438;-69
2021/11/16 02:32:52;;;;;;;58.60;52.60;;;;;;;;;;4986423;28;20018;-69
2021/11/16 02:35:19;;;;;;;57.75;52.17;;;;;;;;;;4994014;28;20023;-69
2021/11/16 02:37:46;;;;;;;62.53;56.35;;;;;;;;;;4983205;28;20046;-68
2021/11/16 02:40:12;;;;;;;61.67;55.88;;;;;;;;;;4996644;28;20018;-69
2021/11/16 02:42:39;;;;;;;61.63;55.85;;;;;;;;;;4989099;28;20038;-69
2021/11/16 02:45:06;;;;;;;61.00;55.40;;;;;;;;;;4971487;28;20554;-68
2021/11/16 02:47:33;;;;;;;63.40;56.83;;;;;;;;;;4990023;28;20030;-68
2021/11/16 02:49:59;;;;;;;59.45;53.78;;;;;;;;;;4992080;28;20023;-69
2021/11/16 02:52:26;;;;;;;56.22;50.70;;;;;;;;;;4986434;28;20049;-68
2021/11/16 02:54:52;;;;;;;61.22;54.92;;;;;;;;;;4977701;28;20062;-68
2021/11/16 02:57:18;;;;;;;58.70;52.60;;;;;;;;;;4990540;28;20018;-68
2021/11/16 02:59:45;;;;;;;60.00;53.92;;;;;;;;;;4993013;28;20046;-68
2021/11/16 03:02:11;;;;;;;61.67;55.58;;;;;;;;;;4974519;28;20026;-68
2021/11/16 03:04:43;;;;;;;59.00;53.08;;;;;;;;;;4987722;28;20042;-68
2021/11/16 03:07:10;;;;;;;58.00;52.40;;;;;;;;;;4984606;28;20034;-68
2021/11/16 03:09:36;;;;;;;58.78;52.88;;;;;;;;;;4971096;28;20511;-68
2021/11/16 03:12:03;;;;;;;58.90;53.10;;;;;;;;;;4972062;28;20038;-69
2021/11/16 03:14:30;;;;;;;58.00;52.17;;;;;;;;;;4999347;28;20050;-69
2021/11/16 03:16:56;;;;;;;59.55;53.75;;;;;;;;;;4973413;28;20106;-68
2021/11/16 03:19:22;;;;;;;60.95;54.35;;;;;;;;;;4967628;28;20037;-69
2021/11/16 03:21:59;;;;;;;58.58;52.45;;;;;;;;;;4985593;28;20026;-68
2021/11/16 03:24:27;;;;;;;60.80;54.83;;;;;;;;;;4986433;28;20093;-68
2021/11/16 03:26:54;;;;;;;61.58;55.05;;;;;;;;;;4989592;28;20033;-69
2021/11/16 03:29:24;;;;;;;62.72;56.38;;;;;;;;;;4986113;28;20034;-69
2021/11/16 03:31:53;;;;;;;59.33;53.65;;;;;;;;;;4982947;28;20029;-68
2021/11/16 03:34:19;;;;;;;63.08;56.65;;;;;;;;;;4991033;28;20019;-68
2021/11/16 03:36:46;;;;;;;63.50;56.80;;;;;;;;;;4983257;28;20041;-68
2021/11/16 03:39:12;;;;;;;63.88;56.05;;;;;;;;;;4964175;28;20030;-68
2021/11/16 03:41:39;;;;;;;67.20;54.85;;;;;;;;;;4971715;28;20458;-68
2021/11/16 03:44:05;;;;;;;58.30;52.40;;;;;;;;;;4988064;28;20038;-69
2021/11/16 03:46:32;;;;;;;61.15;54.42;;;;;;;;;;4973236;28;20053;-68
2021/11/16 03:48:58;;;;;;;60.53;53.97;;;;;;;;;;4973015;28;20041;-68
2021/11/16 03:51:24;;;;;;;58.35;52.22;;;;;;;;;;5000882;28;20080;-68
2021/11/16 03:53:50;;;;;;;58.95;52.47;;;;;;;;;;4987413;28;20081;-68
2021/11/16 03:56:17;;;;;;;59.08;52.85;;;;;;;;;;4986948;28;20522;-68
2021/11/16 03:58:45;;;;;;;59.42;52.97;;;;;;;;;;4984535;28;20030;-68
2021/11/16 04:01:12;;;;;;;65.03;54.55;;;;;;;;;;4991200;28;20495;-68
2021/11/16 04:03:39;;;;;;;60.30;53.97;;;;;;;;;;4987073;28;20038;-69
2021/11/16 04:06:06;;;;;;;58.33;51.47;;;;;;;;;;4989988;28;20499;-68
2021/11/16 04:08:33;;;;;;;56.42;49.67;;;;;;;;;;4969035;28;20130;-69
2021/11/16 04:10:59;;;;;;;57.47;51.22;;;;;;;;;;4982209;28;20050;-69
2021/11/16 04:13:25;;;;;;;62.78;52.45;;;;;;;;;;4986642;28;20037;-69
2021/11/16 04:15:51;;;;;;;66.45;55.40;;;;;;;;;;4984871;28;20038;-69
2021/11/16 04:18:18;;;;;;;67.32;60.22;;;;;;;;;;4971177;28;20406;-69
2021/11/16 04:20:46;;;;;;;63.75;56.58;;;;;;;;;;4997657;28;20107;-69
2021/11/16 04:23:13;;;;;;;61.53;53.53;;;;;;;;;;4990361;28;20114;-69
2021/11/16 04:25:40;;;;;;;64.07;53.78;;;;;;;;;;4967716;28;20034;-69
2021/11/16 04:28:07;;;;;;;59.75;50.75;;;;;;;;;;4981499;28;20092;-68
2021/11/16 04:30:33;;;;;;;59.78;53.33;;;;;;;;;;4987690;28;20377;-68
2021/11/16 04:33:00;;;;;;;60.92;54.33;;;;;;;;;;4988939;28;20037;-68
2021/11/16 04:35:28;;;;;;;61.90;55.50;;;;;;;;;;4985434;28;20019;-69
2021/11/16 04:37:54;;;;;;;65.93;54.80;;;;;;;;;;4991425;28;20386;-69
2021/11/16 04:40:25;;;;;;;63.90;56.28;;;;;;;;;;4991614;28;20046;-68
2021/11/16 04:42:53;;;;;;;61.65;55.22;;;;;;;;;;4973043;28;20037;-68
2021/11/16 04:45:22;;;;;;;61.17;54.50;;;;;;;;;;4982424;28;20029;-69
2021/11/16 04:47:59;;;;;;;67.30;60.10;;;;;;;;;;4975979;28;20488;-69
2021/11/16 05:03:50;;;;;;;63.55;56.67;;;;;;;;;;4996837;28;20033;-68
2021/11/16 05:06:16;;;;;;;66.47;56.17;;;;;;;;;;4984801;28;20034;-69
2021/11/16 05:08:47;;;;;;;65.85;56.60;;;;;;;;;;4996120;28;20038;-69
2021/11/16 05:11:14;;;;;;;63.72;53.15;;;;;;;;;;4998810;28;20105;-69
2021/11/16 05:13:43;;;;;;;63.85;56.22;;;;;;;;;;5001373;28;20026;-69
2021/11/16 05:16:10;;;;;;;66.80;52.50;;;;;;;;;;4987904;28;20057;-68
2021/11/16 05:18:36;;;;;;;75.97;55.80;;;;;;;;;;4989806;28;20517;-69
2021/11/16 05:21:02;;;;;;;67.55;56.83;;;;;;;;;;4998870;28;20558;-68
2021/11/16 05:23:29;;;;;;;67.75;54.30;;;;;;;;;;4993428;28;20034;-68
2021/11/16 05:25:55;;;;;;;69.40;55.55;;;;;;;;;;4988103;28;20029;-69
2021/11/16 05:28:22;;;;;;;72.53;56.17;;;;;;;;;;4989067;28;20034;-69
2021/11/16 05:30:48;;;;;;;67.38;55.95;;;;;;;;;;4994053;28;20508;-69
2021/11/16 05:33:15;;;;;;;77.60;56.47;;;;;;;;;;4965293;28;20038;-69
2021/11/16 05:35:42;;;;;;;69.05;56.08;;;;;;;;;;4985861;28;20034;-69
2021/11/16 05:38:20;;;;;;;70.88;58.92;;;;;;;;;;4993239;28;20057;-69
2021/11/16 05:40:47;;;;;;;73.95;59.03;;;;;;;;;;4988019;28;20042;-68
2021/11/16 05:43:13;;;;;;;71.13;60.10;;;;;;;;;;4963747;28;20162;-69
2021/11/16 05:45:39;;;;;;;64.05;55.38;;;;;;;;;;4992205;28;20046;-69
2021/11/16 05:48:05;;;;;;;70.30;56.17;;;;;;;;;;4987965;28;20026;-70
2021/11/16 05:50:32;;;;;;;75.25;54.33;;;;;;;;;;4972177;28;20483;-69
2021/11/16 05:52:59;;;;;;;69.90;56.65;;;;;;;;;;4968745;28;20088;-69
2021/11/16 05:55:25;;;;;;;73.78;58.45;;;;;;;;;;4984738;28;20029;-69
2021/11/16 05:57:51;;;;;;;74.07;59.00;;;;;;;;;;4989544;28;20072;-69
2021/11/16 06:00:17;;;;;;;77.95;60.25;;;;;;;;;;4990569;28;20407;-68
2021/11/16 06:02:43;;;;;;;77.10;59.05;;;;;;;;;;4971461;28;20037;-69
2021/11/16 06:05:10;;;;;;;78.50;58.78;;;;;;;;;;4974782;28;20042;-69
2021/11/16 06:07:36;;;;;;;83.50;60.10;;;;;;;;;;4991961;28;20026;-68
2021/11/16 06:10:02;;;;;;;75.78;59.35;;;;;;;;;;4974916;28;20035;-69
2021/11/16 06:12:28;;;;;;;83.28;62.83;;;;;;;;;;4990937;28;20034;-69
2021/11/16 06:14:54;;;;;;;78.55;59.67;;;;;;;;;;4998165;28;20499;-68
2021/11/16 06:17:20;;;;;;;83.53;59.55;;;;;;;;;;4994642;28;20042;-68
2021/11/16 06:19:47;;;;;;;81.75;59.95;;;;;;;;;;4973997;28;20092;-68
2021/11/16 06:22:13;;;;;;;85.72;59.20;;;;;;;;;;4988713;28;20030;-68
2021/11/16 06:24:39;;;;;;;81.22;58.92;;;;;;;;;;5001627;28;20030;-68
2021/11/16 06:27:06;;;;;;;81.28;59.20;;;;;;;;;;4986169;28;20038;-68
2021/11/16 06:29:32;;;;;;;80.75;59.58;;;;;;;;;;4971056;28;20506;-69
2021/11/16 06:31:58;;;;;;;74.90;57.72;;;;;;;;;;4978512;28;20403;-69
2021/11/16 06:34:25;;;;;;;205.05;142.23;;;;;;;;;;4989242;28;20586;-69
2021/11/16 06:36:51;;;;;;;87.57;60.05;;;;;;;;;;4989712;28;20079;-69
2021/11/16 06:39:19;;;;;;;88.80;58.72;;;;;;;;;;5056497;23;20172;-74
2021/11/16 06:41:46;;;;;;;312.95;255.43;;;;;;;;;;4966474;28;21335;-74
2021/11/16 06:44:13;;;;;;;83.70;61.58;;;;;;;;;;4971447;28;20478;-74
2021/11/16 06:46:39;;;;;;;86.28;59.63;;;;;;;;;;4970715;28;20030;-74
2021/11/16 06:49:07;;;;;;;88.28;62.42;;;;;;;;;;4965477;28;20539;-74
2021/11/16 06:51:37;;;;;;;89.18;65.05;;;;;;;;;;4962877;28;21343;-74
2021/11/16 06:54:10;;;;;;;89.25;59.47;;;;;;;;;;4947123;28;20054;-74
2021/11/16 06:56:37;;;;;;;94.93;61.17;;;;;;;;;;4951640;28;20019;-74
2021/11/16 06:59:04;;;;;;;103.22;63.15;;;;;;;;;;4962826;28;20031;-74
2021/11/16 07:01:30;;;;;;;98.60;59.38;;;;;;;;;;4968390;28;20026;-74
2021/11/16 07:04:01;;;;;;;94.47;60.28;;;;;;;;;;4972918;28;20102;-73
2021/11/16 07:06:30;;;;;;;99.18;64.72;;;;;;;;;;4960087;28;20023;-74
2021/11/16 07:08:57;;;;;;;109.97;63.33;;;;;;;;;;4965065;28;20061;-74
2021/11/16 07:11:23;;;;;;;114.13;65.35;;;;;;;;;;4967608;28;20461;-74
2021/11/16 07:13:58;;;;;;;110.88;65.63;;;;;;;;;;4969264;28;20015;-74
2021/11/16 07:16:25;;;;;;;106.43;66.00;;;;;;;;;;4954735;28;20420;-73
2021/11/16 07:18:52;;;;;;;127.50;69.65;;;;;;;;;;4968632;28;20485;-73
2021/11/16 07:21:20;;;;;;;123.80;70.68;;;;;;;;;;4970162;28;20038;-74
2021/11/16 07:23:47;;;;;;;121.45;65.82;;;;;;;;;;4964768;28;20461;-74
2021/11/16 07:26:14;;;;;;;107.43;63.50;;;;;;;;;;4962857;28;20035;-74
2021/11/16 07:28:46;;;;;;;149.00;87.55;;;;;;;;;;4970407;28;20062;-74
2021/11/16 07:31:22;;;;;;;116.13;61.50;;;;;;;;;;4967746;28;20022;-74
2021/11/16 07:33:51;;;;;;;118.28;66.47;;;;;;;;;;4967674;28;20027;-74
2021/11/16 07:36:18;;;;;;;172.77;116.32;;;;;;;;;;4969010;28;20073;-74
2021/11/16 07:38:51;;;;;;;114.00;67.20;;;;;;;;;;4956791;28;20063;-74
2021/11/16 07:41:24;;;;;;;114.75;67.50;;;;;;;;;;5152988;23;20045;-69
2021/11/16 07:43:51;;;;;;;119.68;69.57;;;;;;;;;;4997155;28;20026;-69
2021/11/16 07:46:17;;;;;;;113.07;67.35;;;;;;;;;;4998312;28;20548;-69
2021/11/16 07:48:43;;;;;;;115.00;70.03;;;;;;;;;;5171947;23;20101;-69
2021/11/16 07:51:12;;;;;;;328.73;248.88;;;;;;;;;;4985170;28;20022;-69
2021/11/16 07:53:41;;;;;;;115.53;68.88;;;;;;;;;;4996731;28;20030;-69
2021/11/16 07:56:13;;;;;;;122.40;67.70;;;;;;;;;;4984599;28;20034;-69
2021/11/16 07:58:41;;;;;;;106.68;65.57;;;;;;;;;;4991158;28;20038;-69
2021/11/16 08:01:10;;;;;;;118.47;63.55;;;;;;;;;;5008479;28;20029;-69
2021/11/16 08:03:44;;;;;;;108.22;63.05;;;;;;;;;;4975322;28;20054;-69
2021/11/16 08:12:11;;;;;;;117.35;64.28;;;;;;;;;;5006895;28;20029;-69
2021/11/16 08:14:38;;;;;;;117.57;63.78;;;;;;;;;;5006948;28;20030;-69
2021/11/16 08:17:07;;;;;;;115.05;67.18;;;;;;;;;;4989991;28;20022;-69
2021/11/16 08:19:35;;;;;;;148.20;85.72;;;;;;;;;;5003713;28;20046;-69
2021/11/16 08:22:04;;;;;;;109.18;63.65;;;;;;;;;;4993619;28;20089;-69
2021/11/16 08:24:33;;;;;;;106.18;59.90;;;;;;;;;;4980139;28;20026;-69
2021/11/16 08:27:00;;;;;;;107.55;60.78;;;;;;;;;;4984378;28;20034;-69
2021/11/16 08:29:28;;;;;;;119.88;60.63;;;;;;;;;;4978012;28;20045;-69
2021/11/16 08:32:02;;;;;;;118.18;60.95;;;;;;;;;;4976349;28;20040;-69
2021/11/16 08:34:29;;;;;;;105.22;59.47;;;;;;;;;;4975652;28;20101;-69
2021/11/16 08:36:55;;;;;;;124.43;61.35;;;;;;;;;;4993114;28;20373;-68
2021/11/16 08:39:38;;;;;;;111.53;57.10;;;;;;;;;;4983711;28;20090;-69
2021/11/16 08:42:19;;;;;;;117.95;57.85;;;;;;;;;;4985550;28;20366;-69
2021/11/16 08:44:47;;;;;;;114.20;60.38;;;;;;;;;;4982565;28;20030;-69
2021/11/16 08:47:15;;;;;;;124.20;55.63;;;;;;;;;;5001851;28;20056;-69
2021/11/16 08:49:42;;;;;;;123.55;56.85;;;;;;;;;;4969952;28;20046;-69
2021/11/16 08:52:15;;;;;;;118.82;58.53;;;;;;;;;;4995564;28;20121;-68
2021/11/16 08:54:42;;;;;;;109.55;52.35;;;;;;;;;;5002572;28;20480;-69
2021/11/16 08:57:19;;;;;;;117.55;60.97;;;;;;;;;;5011170;28;20026;-69
2021/11/16 08:59:45;;;;;;;104.57;58.78;;;;;;;;;;4991943;28;20037;-69
2021/11/16 09:02:12;;;;;;;107.15;53.38;;;;;;;;;;4995412;28;20057;-69
2021/11/16 09:04:40;;;;;;;109.57;55.60;;;;;;;;;;5000582;28;20030;-69
2021/11/16 09:07:30;;;;;;;103.53;53.38;;;;;;;;;;4999894;28;20023;-68
2021/11/16 09:09:59;;;;;;;108.82;54.35;;;;;;;;;;4990496;28;20033;-69
2021/11/16 09:12:32;;;;;;;115.97;57.55;;;;;;;;;;4999254;28;20429;-68
2021/11/16 09:15:01;;;;;;;112.82;55.55;;;;;;;;;;5002700;28;20076;-68
2021/11/16 09:17:27;;;;;;;109.30;58.92;;;;;;;;;;5006279;28;20030;-69
2021/11/16 09:19:53;;;;;;;97.47;55.40;;;;;;;;;;4970488;28;20023;-69
2021/11/16 09:22:19;;;;;;;112.43;58.28;;;;;;;;;;4997401;28;20092;-68
2021/11/16 09:24:49;;;;;;;109.93;57.33;;;;;;;;;;5008342;28;20505;-69
2021/11/16 09:30:00;;;;;;;102.57;57.95;;;;;;;;;;5008127;28;20037;-69
2021/11/16 09:32:28;;;;;;;108.53;56.70;;;;;;;;;;4984446;28;20055;-69
2021/11/16 09:34:57;;;;;;;99.07;55.55;;;;;;;;;;4984376;28;20038;-69
2021/11/16 09:37:24;;;;;;;98.70;55.88;;;;;;;;;;4988747;28;20050;-69
2021/11/16 09:39:52;;;;;;;102.85;53.70;;;;;;;;;;4987157;28;20080;-69
2021/11/16 09:42:23;;;;;;;100.03;55.90;;;;;;;;;;4984884;28;20022;-69
2021/11/16 09:44:52;;;;;;;99.30;58.53;;;;;;;;;;4989293;28;20125;-69
2021/11/16 09:47:18;;;;;;;94.95;54.78;;;;;;;;;;4965098;28;20037;-69
2021/11/16 09:49:46;;;;;;;113.60;57.15;;;;;;;;;;4984735;28;20583;-69
2021/11/16 09:52:17;;;;;;;98.55;55.22;;;;;;;;;;4968642;28;20035;-69
2021/11/16 09:54:46;;;;;;;100.10;54.40;;;;;;;;;;4987622;28;20034;-69
2021/11/16 09:57:13;;;;;;;99.28;53.13;;;;;;;;;;4980834;28;20034;-69
2021/11/16 09:59:40;;;;;;;90.75;52.58;;;;;;;;;;4989710;28;20037;-69
2021/11/16 10:02:07;;;;;;;101.03;54.85;;;;;;;;;;4998141;28;20551;-69
2021/11/16 10:04:41;;;;;;;101.45;56.58;;;;;;;;;;4990771;28;20489;-69
2021/11/16 10:07:07;;;;;;;87.88;53.92;;;;;;;;;;4980151;28;20032;-69
2021/11/16 10:09:33;;;;;;;106.38;56.08;;;;;;;;;;4990460;28;20308;-69
2021/11/16 10:11:59;;;;;;;94.70;54.67;;;;;;;;;;4995101;28;20530;-69
2021/11/16 10:14:25;;;;;;;83.80;53.72;;;;;;;;;;4967989;28;20035;-70
2021/11/16 10:16:52;;;;;;;94.95;56.08;;;;;;;;;;4974208;28;20064;-69
2021/11/16 10:19:18;;;;;;;99.80;54.35;;;;;;;;;;4968243;28;20382;-69
2021/11/16 10:21:44;;;;;;;93.75;55.08;;;;;;;;;;4983373;28;20504;-69
2021/11/16 10:24:36;;;;;;;96.70;54.80;;;;;;;;;;4985573;28;20026;-69
2021/11/16 10:27:22;;;;;;;98.97;53.78;;;;;;;;;;4984936;28;20044;-69
2021/11/16 10:30:04;;;;;;;94.75;53.10;;;;;;;;;;4984215;28;20030;-69
2021/11/16 10:32:30;;;;;;;110.10;57.55;;;;;;;;;;4973634;28;20026;-68
2021/11/16 10:35:06;;;;;;;89.22;55.75;;;;;;;;;;4969927;28;20121;-68
2021/11/16 10:37:43;;;;;;;95.50;56.85;;;;;;;;;;4986052;28;20056;-68
2021/11/16 10:40:10;;;;;;;96.43;57.85;;;;;;;;;;4986763;28;20108;-69
2021/11/16 10:42:43;;;;;;;95.55;56.55;;;;;;;;;;4987798;28;20026;-69
2021/11/16 10:45:14;;;;;;;101.18;60.83;;;;;;;;;;4985650;28;20045;-69
2021/11/16 10:47:40;;;;;;;96.93;60.67;;;;;;;;;;4989755;28;20070;-69
2021/11/16 10:50:10;;;;;;;113.55;65.20;;;;;;;;;;4992082;28;20489;-69
2021/11/16 10:52:37;;;;;;;104.60;59.95;;;;;;;;;;4970947;28;20038;-69
2021/11/16 10:55:04;;;;;;;87.15;56.83;;;;;;;;;;4990030;28;20458;-69
2021/11/16 10:57:51;;;;;;;98.70;58.95;;;;;;;;;;4974155;28;20022;-69
2021/11/16 11:00:28;;;;;;;92.65;56.05;;;;;;;;;;4995470;28;20337;-69
2021/11/16 11:03:12;;;;;;;96.95;56.45;;;;;;;;;;4991371;28;20044;-69
2021/11/16 11:05:38;;;;;;;86.63;57.17;;;;;;;;;;4992625;28;20026;-69
2021/11/16 11:08:04;;;;;;;101.05;57.72;;;;;;;;;;4985753;28;20081;-69
2021/11/16 11:10:45;;;;;;;101.65;59.60;;;;;;;;;;4971800;28;20026;-69
2021/11/16 11:13:30;;;;;;;100.47;58.03;;;;;;;;;;4989455;28;20034;-69
2021/11/16 11:15:57;;;;;;;95.07;54.80;;;;;;;;;;4991914;28;20028;-69
2021/11/16 11:18:29;;;;;;;90.20;57.63;;;;;;;;;;4995722;28;20026;-69
2021/11/16 11:20:58;;;;;;;97.28;56.13;;;;;;;;;;4993776;28;20026;-69
2021/11/16 11:23:32;;;;;;;94.90;56.30;;;;;;;;;;4992724;28;20031;-69
2021/11/16 11:26:17;;;;;;;100.35;57.47;;;;;;;;;;4979068;28;20588;-69
2021/11/16 11:28:53;;;;;;;100.22;60.10;;;;;;;;;;4986086;28;20029;-69
2021/11/16 11:31:26;;;;;;;93.68;56.83;;;;;;;;;;4971722;28;20027;-69
2021/11/16 11:33:53;;;;;;;99.15;59.78;;;;;;;;;;4989581;28;20022;-69
2021/11/16 11:36:22;;;;;;;101.90;58.25;;;;;;;;;;4990738;28;20064;-69
2021/11/16 11:38:48;;;;;;;90.85;58.03;;;;;;;;;;4985480;28;20087;-69
2021/11/16 11:41:15;;;;;;;96.43;57.50;;;;;;;;;;4990256;28;20031;-69
2021/11/16 11:43:41;;;;;;;97.45;58.38;;;;;;;;;;4988809;28;20030;-68
2021/11/16 11:46:07;;;;;;;92.75;56.17;;;;;;;;;;4969058;28;20062;-69
2021/11/16 11:48:33;;;;;;;86.10;58.92;;;;;;;;;;4982597;28;20049;-69
2021/11/16 11:50:59;;;;;;;91.00;59.42;;;;;;;;;;4969083;28;20049;-70
2021/11/16 11:53:27;;;;;;;91.82;56.75;;;;;;;;;;4982109;28;20339;-69
2021/11/16 11:55:57;;;;;;;91.22;59.35;;;;;;;;;;4983583;28;20573;-69
2021/11/16 11:58:24;;;;;;;90.78;60.67;;;;;;;;;;4980705;28;21518;-69
2021/11/16 12:00:52;;;;;;;89.82;57.95;;;;;;;;;;4984885;28;20031;-69
2021/11/16 12:03:19;;;;;;;89.88;59.97;;;;;;;;;;4982439;28;20504;-70
2021/11/16 12:05:45;;;;;;;97.20;60.10;;;;;;;;;;4982165;28;20050;-70
2021/11/16 12:08:12;;;;;;;102.47;60.25;;;;;;;;;;4984908;28;20022;-69
2021/11/16 12:10:39;;;;;;;102.72;59.22;;;;;;;;;;4987110;28;20516;-69
2021/11/16 12:13:06;;;;;;;94.45;58.85;;;;;;;;;;4990958;28;20065;-70
2021/11/16 12:15:35;;;;;;;95.25;60.75;;;;;;;;;;4988659;28;20049;-69
2021/11/16 12:18:02;;;;;;;98.05;60.00;;;;;;;;;;4966916;28;20456;-69
2021/11/16 12:20:56;;;;;;;94.25;57.03;;;;;;;;;;4983878;28;20537;-69
2021/11/16 12:23:41;;;;;;;88.72;56.17;;;;;;;;;;4965240;28;20512;-69
2021/11/16 12:26:08;;;;;;;94.13;57.45;;;;;;;;;;4978422;28;20049;-69
2021/11/16 12:28:34;;;;;;;85.55;56.33;;;;;;;;;;4979555;28;20033;-69
2021/11/16 12:31:02;;;;;;;88.65;55.70;;;;;;;;;;4967734;28;20049;-69
2021/11/16 12:33:39;;;;;;;85.25;55.55;;;;;;;;;;4982335;28;20029;-69
2021/11/16 12:36:06;;;;;;;85.18;52.92;;;;;;;;;;4985194;28;20026;-69
2021/11/16 12:38:37;;;;;;;81.63;53.45;;;;;;;;;;4978803;28;20039;-69
2021/11/16 12:41:21;;;;;;;91.70;54.22;;;;;;;;;;4980043;28;20079;-69
2021/11/16 12:43:48;;;;;;;87.88;52.80;;;;;;;;;;4962406;28;20578;-69
2021/11/16 12:46:21;;;;;;;87.07;55.03;;;;;;;;;;4981842;28;20038;-69
2021/11/16 12:48:52;;;;;;;88.45;57.05;;;;;;;;;;4980769;28;20158;-69
2021/11/16 12:51:19;;;;;;;83.20;54.92;;;;;;;;;;4966067;28;20086;-69
2021/11/16 12:53:53;;;;;;;82.82;55.70;;;;;;;;;;4983059;28;20057;-69
2021/11/16 12:56:21;;;;;;;91.43;55.45;;;;;;;;;;4983869;28;20433;-70
2021/11/16 12:58:54;;;;;;;90.57;53.80;;;;;;;;;;4985484;28;20072;-69
2021/11/16 13:01:39;;;;;;;90.85;55.33;;;;;;;;;;4982560;28;20061;-69
2021/11/16 13:04:07;;;;;;;84.05;55.75;;;;;;;;;;4983223;28;20038;-69
2021/11/16 13:06:37;;;;;;;86.15;55.22;;;;;;;;;;4978514;28;20026;-70
2021/11/16 13:09:04;;;;;;;83.53;52.83;;;;;;;;;;4977163;28;20035;-69
2021/11/16 13:11:41;;;;;;;82.05;54.63;;;;;;;;;;4984295;28;20038;-69
2021/11/16 13:14:08;;;;;;;86.38;55.13;;;;;;;;;;4980597;28;20026;-69
2021/11/16 13:16:35;;;;;;;80.90;54.80;;;;;;;;;;4968324;28;20072;-69
2021/11/16 13:19:01;;;;;;;93.70;58.40;;;;;;;;;;4981842;28;20405;-70
2021/11/16 13:21:28;;;;;;;92.70;57.55;;;;;;;;;;4975353;28;20382;-69
2021/11/16 13:23:55;;;;;;;90.85;57.47;;;;;;;;;;4967015;28;20038;-69
2021/11/16 13:26:23;;;;;;;90.38;53.92;;;;;;;;;;4985801;28;20030;-69
2021/11/16 13:28:58;;;;;;;91.57;55.22;;;;;;;;;;4982587;28;20049;-69
2021/11/16 13:31:41;;;;;;;86.53;52.85;;;;;;;;;;4987004;28;20056;-69
2021/11/16 13:34:11;;;;;;;90.75;52.30;;;;;;;;;;4980675;28;20023;-69
2021/11/16 13:36:40;;;;;;;85.43;52.17;;;;;;;;;;4980747;28;20029;-69
2021/11/16 13:39:20;;;;;;;94.88;56.95;;;;;;;;;;4983672;28;20034;-70
2021/11/16 13:41:58;;;;;;;88.57;54.40;;;;;;;;;;4992663;28;20396;-70
2021/11/16 13:44:26;;;;;;;88.07;56.88;;;;;;;;;;4991477;28;20450;-69
2021/11/16 13:46:54;;;;;;;95.80;54.97;;;;;;;;;;4981203;28;20023;-69
2021/11/16 13:49:43;;;;;;;98.97;55.65;;;;;;;;;;4966658;28;20050;-69
2021/11/16 13:52:15;;;;;;;98.38;54.33;;;;;;;;;;4952823;28;20114;-69
2021/11/16 13:54:42;;;;;;;99.72;54.10;;;;;;;;;;4985888;28;21260;-69
2021/11/16 13:57:10;;;;;;;100.88;54.72;;;;;;;;;;4982548;28;20026;-69
2021/11/16 13:59:37;;;;;;;98.82;55.45;;;;;;;;;;4958788;28;20058;-69
2021/11/16 14:02:04;;;;;;;92.05;57.08;;;;;;;;;;4962236;28;20514;-70
2021/11/16 14:04:31;;;;;;;87.40;53.78;;;;;;;;;;4964396;28;20047;-70
2021/11/16 14:07:14;;;;;;;87.28;57.40;;;;;;;;;;4965443;28;20038;-70
2021/11/16 14:09:40;;;;;;;95.07;56.20;;;;;;;;;;4971922;28;20033;-70
2021/11/16 14:12:06;;;;;;;98.78;57.10;;;;;;;;;;4963739;28;20023;-69
2021/11/16 14:14:33;;;;;;;96.47;55.75;;;;;;;;;;4984638;28;20174;-69
2021/11/16 14:17:07;;;;;;;90.10;53.85;;;;;;;;;;4982937;28;20523;-69
2021/11/16 14:19:33;;;;;;;93.10;51.45;;;;;;;;;;4996520;28;20084;-70
2021/11/16 14:21:59;;;;;;;101.72;54.70;;;;;;;;;;4997641;28;20033;-70
2021/11/16 14:24:27;;;;;;;89.45;52.42;;;;;;;;;;4971378;28;20035;-70
2021/11/16 14:26:53;;;;;;;105.32;55.00;;;;;;;;;;4988620;28;20140;-70
2021/11/16 14:29:19;;;;;;;92.43;56.17;;;;;;;;;;4983180;28;20027;-70
2021/11/16 14:31:46;;;;;;;95.00;57.83;;;;;;;;;;4991701;28;20022;-70
2021/11/16 14:34:17;;;;;;;97.05;58.40;;;;;;;;;;4980797;23;20038;-70
2021/11/16 14:39:19;;;;;;;95.93;52.75;;;;;;;;;;4964274;28;20058;-74
2021/11/16 14:41:45;;;;;;;94.57;53.90;;;;;;;;;;4973750;28;20163;-74
2021/11/16 14:44:12;;;;;;;95.88;53.90;;;;;;;;;;4972647;28;20027;-74
2021/11/16 14:46:39;;;;;;;112.45;57.65;;;;;;;;;;4972752;28;20041;-75
2021/11/16 14:49:07;;;;;;;107.88;55.92;;;;;;;;;;4972097;28;20386;-74